M I D A S
Marine Information and Data Acquisition System
Tripno 2274 of the Zeeleeuw from 2012-03-09 08:22:30 to 2012-03-09 14:03:56
Back to CruiseResearch ActivitiesStationsMapUnderway DataData graphs

EquipmentUnitsComments
TimeDGPSUTC
LatitudeDGPSDM.mWGS84
LongitudeDGPSDM.mWGS84
SpeedMeteo Stationm/sRelative wind speed
DirectionMeteo StationdegRelative wind direction
TemperatureMeteo Stationdeg CelciusAir temperature
PressureMeteo StationPaAtmospheric pressure
HumidityMeteo Station%Relative humidity
Missing or incorrect values are displayed as -999
Metereological data collected by the RV Zeeleeuw from 2012-03-09 07:51:19 to 2012-03-09 14:16:54
Time Latitude Longitude Speed Direction Temperature Pressure Humidity
2012-03-09 07:52 51°13.638 2°56.015 1.2 6 4.2 103580 52
2012-03-09 07:53 51°13.636 2°56.018 2.3 16 4.2 103580 52
2012-03-09 07:54 51°13.635 2°56.019 3.8 12 4.2 103580 51
2012-03-09 07:55 51°13.637 2°56.018 1.2 352 4.3 103580 50
2012-03-09 07:56 51°13.638 2°56.016 1.9 18 4.3 103580 50
2012-03-09 07:57 51°13.64 2°56.015 2.1 23 4.3 103580 51
2012-03-09 07:58 51°13.64 2°56.016 3.9 6 4.3 103580 53
2012-03-09 07:59 51°13.638 2°56.018 1.7 2 4.3 103580 51
2012-03-09 08:00 51°13.638 2°56.018 0.1 14 4.3 103580 51
2012-03-09 08:01 51°13.637 2°56.017 2.2 12 4.3 103580 51
2012-03-09 08:02 51°13.639 2°56.017 1.5 2 4.3 103580 52
2012-03-09 08:03 51°13.638 2°56.017 1.5 16 4.4 103580 51
2012-03-09 08:04 51°13.638 2°56.017 2.5 357 4.4 103580 53
2012-03-09 08:05 51°13.637 2°56.017 1 6 4.4 103580 52
2012-03-09 08:06 51°13.636 2°56.016 2.2 8 4.4 103580 52
2012-03-09 08:07 51°13.637 2°56.018 2.4 3 4.4 103580 53
2012-03-09 08:08 51°13.637 2°56.019 2.3 14 4.5 103580 52
2012-03-09 08:09 51°13.638 2°56.018 0.9 346 4.5 103580 52
2012-03-09 08:10 51°13.637 2°56.018 0.2 8 4.6 103580 51
2012-03-09 08:11 51°13.637 2°56.019 0.4 9 4.6 103580 52
2012-03-09 08:12 51°13.638 2°56.019 2.6 10 4.6 103580 51
2012-03-09 08:13 51°13.637 2°56.018 1.8 5 4.6 103580 52
2012-03-09 08:14 51°13.637 2°56.017 1.5 3 4.6 103580 52
2012-03-09 08:15 51°13.637 2°56.019 2.1 3 4.5 103580 50
2012-03-09 08:16 51°13.636 2°56.018 3 10 4.5 103580 51
2012-03-09 08:17 51°13.636 2°56.018 2.6 17 4.5 103580 51
2012-03-09 08:18 51°13.635 2°56.017 3.7 27 4.5 103580 51
2012-03-09 08:19 51°13.644 2°55.983 3.7 27 4.6 103580 52
2012-03-09 08:20 51°13.661 2°55.929 3.1 26 4.6 103580 51
2012-03-09 08:21 51°13.685 2°55.857 2.5 43 4.6 103580 51
2012-03-09 08:22 51°13.734 2°55.742 4.6 28 4.6 103570 50
2012-03-09 08:23 51°13.801 2°55.66 2.6 23 4.6 103580 50
2012-03-09 08:24 51°13.878 2°55.606 1 356 4.7 103570 50
2012-03-09 08:25 51°13.941 2°55.576 1.7 12 -999 -999 -999
2012-03-09 08:26 51°13.988 2°55.557 3.6 346 4.7 103580 51
2012-03-09 08:27 51°13.995 2°55.549 4 252 4.7 103570 50
2012-03-09 08:28 51°14.013 2°55.595 4.2 252 4.8 103580 50
2012-03-09 08:29 51°14.082 2°55.466 2.9 22 4.8 103570 50
2012-03-09 08:30 51°14.198 2°55.352 2.5 20 4.9 103570 52
2012-03-09 08:31 51°14.317 2°55.242 5.7 21 4.9 103570 51
2012-03-09 08:32 51°14.43 2°55.136 4.3 21 5 103570 50
2012-03-09 08:33 51°14.553 2°55.019 6.5 24 5.1 103580 52
2012-03-09 08:34 51°14.689 2°54.866 7.4 249 5.2 103580 52
2012-03-09 08:35 51°14.849 2°54.748 5.4 249 5.2 103590 52
2012-03-09 08:36 51°15.029 2°54.711 3.8 252 5.2 103590 51
2012-03-09 08:37 51°15.206 2°54.679 5.4 250 5.3 103590 53
2012-03-09 08:38 51°15.37 2°54.609 5 263 5.3 103590 52
2012-03-09 08:39 51°15.474 2°54.571 5.9 262 5.3 103600 53
2012-03-09 08:40 51°15.548 2°54.505 7.1 261 5.3 103590 51
2012-03-09 08:41 51°15.619 2°54.435 5.5 262 5.3 103590 52
2012-03-09 08:42 51°15.694 2°54.368 7.1 260 5.3 103590 52
2012-03-09 08:43 51°15.773 2°54.305 4.6 264 5.3 103590 52
2012-03-09 08:44 51°15.852 2°54.241 4.3 265 5.3 103590 52
2012-03-09 08:45 51°15.928 2°54.163 6.7 260 5.3 103590 52
2012-03-09 08:46 51°15.999 2°54.071 6.8 259 5.4 103590 52
2012-03-09 08:47 51°16.072 2°53.984 7.2 260 5.5 103590 51
2012-03-09 08:48 51°16.146 2°53.907 4.6 264 5.5 103580 52
2012-03-09 08:49 51°16.22 2°53.831 6.5 262 5.5 103580 51
2012-03-09 08:50 51°16.292 2°53.75 7.7 259 5.5 103600 51
2012-03-09 08:51 51°16.355 2°53.647 8.2 255 5.5 103600 52
2012-03-09 08:52 51°16.413 2°53.531 8.7 257 5.5 103610 51
2012-03-09 08:53 51°16.479 2°53.427 9.3 259 5.5 103610 52
2012-03-09 08:54 51°16.546 2°53.332 6.3 262 5.5 103610 52
2012-03-09 08:55 51°16.614 2°53.244 6 262 5.5 103600 51
2012-03-09 08:56 51°16.677 2°53.147 6.8 254 5.5 103600 50
2012-03-09 08:57 51°16.741 2°53.05 6 260 5.5 103610 51
2012-03-09 08:58 51°16.807 2°52.962 8.2 258 5.5 103610 52
2012-03-09 08:59 51°16.875 2°52.88 7.9 258 5.5 103600 52
2012-03-09 09:00 51°16.94 2°52.797 7.7 257 5.6 103600 52
2012-03-09 09:01 51°17.002 2°52.709 8.1 256 5.6 103590 51
2012-03-09 09:02 51°17.065 2°52.623 6.4 260 5.6 103600 51
2012-03-09 09:03 51°17.131 2°52.549 6.8 261 5.6 103600 52
2012-03-09 09:04 51°17.2 2°52.476 7.7 256 5.6 103600 50
2012-03-09 09:05 51°17.269 2°52.395 6.3 262 5.6 103600 51
2012-03-09 09:06 51°17.335 2°52.307 7.8 259 5.6 103590 52
2012-03-09 09:07 51°17.402 2°52.218 6.7 260 5.6 103590 52
2012-03-09 09:08 51°17.473 2°52.143 5.6 264 5.6 103590 51
2012-03-09 09:09 51°17.542 2°52.063 6.7 259 5.6 103590 51
2012-03-09 09:10 51°17.607 2°51.972 7.4 255 5.7 103590 51
2012-03-09 09:11 51°17.672 2°51.882 6.1 263 5.7 103590 51
2012-03-09 09:12 51°17.741 2°51.802 6.2 260 5.7 103580 51
2012-03-09 09:13 51°17.809 2°51.721 8.1 257 5.7 103580 51
2012-03-09 09:14 51°17.876 2°51.634 8.9 258 5.8 103580 51
2012-03-09 09:15 51°17.941 2°51.541 8.5 260 5.8 103580 52
2012-03-09 09:16 51°18.009 2°51.45 7.8 256 5.9 103580 51
2012-03-09 09:17 51°18.079 2°51.366 6.4 262 5.9 103580 52
2012-03-09 09:18 51°18.15 2°51.28 8.3 260 5.9 103590 52
2012-03-09 09:19 51°18.216 2°51.183 8.4 261 5.9 103580 51
2012-03-09 09:20 51°18.28 2°51.084 8.5 258 5.9 103580 51
2012-03-09 09:21 51°18.346 2°50.988 9.1 259 5.9 103590 52
2012-03-09 09:22 51°18.414 2°50.899 6.8 260 5.9 103580 52
2012-03-09 09:23 51°18.483 2°50.81 8.2 253 5.9 103590 51
2012-03-09 09:24 51°18.549 2°50.71 8.5 260 5.9 103570 52
2012-03-09 09:25 51°18.613 2°50.604 10.5 260 5.9 103580 52
2012-03-09 09:26 51°18.679 2°50.503 8.5 258 5.8 103580 51
2012-03-09 09:27 51°18.747 2°50.409 7.5 260 5.8 103580 51
2012-03-09 09:28 51°18.816 2°50.318 8.3 260 5.8 103580 51
2012-03-09 09:29 51°18.875 2°50.201 7.5 249 5.8 103570 52
2012-03-09 09:30 51°18.923 2°50.067 8 18 5.8 103580 52
2012-03-09 09:31 51°18.963 2°49.93 9.2 249 5.8 103580 52
2012-03-09 09:32 51°19.006 2°49.801 9.1 248 5.8 103580 51
2012-03-09 09:33 51°19.053 2°49.678 7.3 251 5.8 103580 52
2012-03-09 09:34 51°19.105 2°49.562 7.5 250 5.8 103580 52
2012-03-09 09:35 51°19.157 2°49.446 7.4 20 5.8 103570 51
2012-03-09 09:36 51°19.206 2°49.324 7.5 247 5.8 103580 51
2012-03-09 09:37 51°19.253 2°49.192 7.6 252 5.8 103570 51
2012-03-09 09:38 51°19.301 2°49.061 7.8 251 5.8 103580 51
2012-03-09 09:39 51°19.354 2°48.936 6.2 252 5.8 103580 52
2012-03-09 09:40 51°19.411 2°48.816 7.4 253 5.8 103580 52
2012-03-09 09:41 51°19.469 2°48.697 7.6 252 5.8 103580 52
2012-03-09 09:42 51°19.525 2°48.576 6.6 253 5.8 103580 50
2012-03-09 09:43 51°19.576 2°48.449 7.3 20 5.8 103580 50
2012-03-09 09:44 51°19.625 2°48.317 7.3 21 5.8 103580 51
2012-03-09 09:45 51°19.678 2°48.189 6.9 251 5.8 103580 50
2012-03-09 09:46 51°19.735 2°48.073 6.5 19 5.8 103580 52
2012-03-09 09:47 51°19.788 2°47.95 7.3 251 5.9 103580 51
2012-03-09 09:48 51°19.834 2°47.819 7.9 248 5.9 103580 51
2012-03-09 09:49 51°19.878 2°47.684 7.6 249 5.9 103580 51
2012-03-09 09:50 51°19.925 2°47.551 7.7 252 5.9 103580 50
2012-03-09 09:51 51°19.973 2°47.42 7.9 19 5.9 103570 51
2012-03-09 09:52 51°20.019 2°47.286 9.1 249 5.9 103570 50
2012-03-09 09:53 51°20.062 2°47.149 7.2 247 5.9 103560 52
2012-03-09 09:54 51°20.115 2°47.026 6.5 261 5.9 103560 51
2012-03-09 09:55 51°20.182 2°46.943 4.5 267 5.9 103570 52
2012-03-09 09:56 51°20.253 2°46.911 4.3 22 5.9 103580 51
2012-03-09 09:57 51°20.31 2°46.946 4.1 21 6 103580 50
2012-03-09 09:58 51°20.33 2°47.032 5.2 34 5.9 103570 50
2012-03-09 09:59 51°20.341 2°47.136 4.6 33 5.9 103570 50
2012-03-09 10:00 51°20.356 2°47.258 5 29 5.9 103580 49
2012-03-09 10:01 51°20.358 2°47.388 4.9 24 5.9 103570 50
2012-03-09 10:02 51°20.345 2°47.522 4.9 19 5.8 103570 52
2012-03-09 10:03 51°20.334 2°47.657 5.4 21 5.9 103560 50
2012-03-09 10:04 51°20.329 2°47.794 5.7 22 5.8 103570 51
2012-03-09 10:05 51°20.329 2°47.931 5.7 25 5.9 103560 51
2012-03-09 10:06 51°20.326 2°48.068 6.4 25 5.9 103570 52
2012-03-09 10:07 51°20.32 2°48.207 5.5 22 5.9 103570 52
2012-03-09 10:08 51°20.314 2°48.347 5.4 18 5.8 103560 51
2012-03-09 10:09 51°20.308 2°48.486 5 24 5.9 103570 52
2012-03-09 10:10 51°20.307 2°48.626 5.5 21 5.9 103570 52
2012-03-09 10:11 51°20.306 2°48.766 5.6 22 5.9 103560 51
2012-03-09 10:12 51°20.301 2°48.908 5.4 18 5.9 103560 50
2012-03-09 10:13 51°20.292 2°49.05 5.7 23 5.9 103560 52
2012-03-09 10:14 51°20.289 2°49.191 4.8 24 5.9 103560 50
2012-03-09 10:15 51°20.291 2°49.334 5.7 24 5.9 103560 50
2012-03-09 10:16 51°20.288 2°49.476 5.7 23 5.9 103570 51
2012-03-09 10:17 51°20.28 2°49.62 5.7 23 5.9 103560 50
2012-03-09 10:18 51°20.277 2°49.764 5.5 28 6 103560 52
2012-03-09 10:19 51°20.277 2°49.909 5.5 24 6 103570 51
2012-03-09 10:20 51°20.273 2°50.053 5.4 22 6 103570 51
2012-03-09 10:21 51°20.266 2°50.2 4.5 24 6 103570 52
2012-03-09 10:22 51°20.267 2°50.346 4.8 31 6 103580 50
2012-03-09 10:23 51°20.279 2°50.491 4.5 33 6 103580 51
2012-03-09 10:24 51°20.294 2°50.636 5.2 30 6 103580 49
2012-03-09 10:25 51°20.304 2°50.784 5.1 26 6 103580 51
2012-03-09 10:26 51°20.306 2°50.936 5.1 32 6 103580 52
2012-03-09 10:27 51°20.346 2°51.054 0.3 20 6 103580 50
2012-03-09 10:28 51°20.43 2°51.076 3.2 267 6.1 103580 51
2012-03-09 10:29 51°20.524 2°51.053 4.1 267 6.1 103590 51
2012-03-09 10:30 51°20.618 2°51.037 2.9 22 6.1 103590 52
2012-03-09 10:31 51°20.711 2°51.033 3.8 270 6.1 103590 52
2012-03-09 10:32 51°20.804 2°51.029 3.3 267 6.1 103580 49
2012-03-09 10:33 51°20.899 2°51.01 3.6 267 6.1 103570 52
2012-03-09 10:34 51°20.993 2°50.988 4 266 6.1 103570 50
2012-03-09 10:35 51°21.089 2°50.972 4.8 26 6.1 103560 51
2012-03-09 10:36 51°21.185 2°50.968 4.5 25 6.1 103560 51
2012-03-09 10:37 51°21.282 2°50.962 5.4 20 6.1 103560 50
2012-03-09 10:38 51°21.38 2°50.944 3.3 268 6.1 103560 51
2012-03-09 10:39 51°21.475 2°50.921 5.2 270 6.1 103560 51
2012-03-09 10:40 51°21.569 2°50.908 4.4 28 6.1 103560 49
2012-03-09 10:41 51°21.663 2°50.908 4.8 21 6.1 103550 52
2012-03-09 10:42 51°21.756 2°50.9 5 271 6.1 103550 49
2012-03-09 10:43 51°21.852 2°50.88 3.7 268 6.1 103550 50
2012-03-09 10:44 51°21.948 2°50.866 4 28 6.1 103540 50
2012-03-09 10:45 51°22.043 2°50.865 5.1 24 6.1 103550 50
2012-03-09 10:46 51°22.138 2°50.862 4.6 21 6.1 103540 52
2012-03-09 10:47 51°22.233 2°50.845 4.2 27 6.1 103540 49
2012-03-09 10:48 51°22.328 2°50.828 4.2 270 6.2 103540 52
2012-03-09 10:49 51°22.425 2°50.821 4.5 27 6.2 103540 52
2012-03-09 10:50 51°22.521 2°50.82 5 29 6.2 103540 51
2012-03-09 10:51 51°22.618 2°50.816 5 28 6.2 103540 50
2012-03-09 10:52 51°22.712 2°50.813 5.2 25 6.2 103540 52
2012-03-09 10:53 51°22.802 2°50.81 5.1 328 6.2 103540 52
2012-03-09 10:54 51°22.891 2°50.807 4.6 26 6.2 103540 50
2012-03-09 10:55 51°22.978 2°50.816 4.7 21 6.2 103530 52
2012-03-09 10:56 51°23.064 2°50.832 4.5 24 6.2 103540 50
2012-03-09 10:57 51°23.132 2°50.899 4.7 44 6.2 103540 51
2012-03-09 10:58 51°23.158 2°51.034 6 33 6.2 103540 50
2012-03-09 10:59 51°23.178 2°51.182 5.6 36 6.2 103540 52
2012-03-09 11:00 51°23.204 2°51.329 5 37 6.2 103540 51
2012-03-09 11:01 51°23.224 2°51.481 5.9 28 6.2 103530 51
2012-03-09 11:02 51°23.22 2°51.641 5.6 22 6.3 103530 52
2012-03-09 11:03 51°23.212 2°51.803 5.9 21 6.2 103540 50
2012-03-09 11:04 51°23.191 2°51.96 7.8 13 6.2 103530 51
2012-03-09 11:05 51°23.158 2°52.114 6.6 17 6.2 103520 51
2012-03-09 11:06 51°23.125 2°52.271 7.9 12 6.1 103520 51
2012-03-09 11:07 51°23.081 2°52.418 6.8 5 6.1 103510 52
2012-03-09 11:08 51°23.016 2°52.538 7.8 350 6.1 103510 51
2012-03-09 11:09 51°22.93 2°52.585 8.8 338 6.2 103500 51
2012-03-09 11:10 51°22.852 2°52.543 8.5 321 6.2 103510 51
2012-03-09 11:11 51°22.802 2°52.44 14.1 318 6.5 103480 51
2012-03-09 11:12 51°22.743 2°52.329 7.5 322 6.6 103500 51
2012-03-09 11:13 51°22.677 2°52.217 9.8 323 6.6 103500 51
2012-03-09 11:14 51°22.618 2°52.102 10.9 319 6.5 103490 50
2012-03-09 11:15 51°22.566 2°51.982 9.9 317 6.5 103480 51
2012-03-09 11:16 51°22.51 2°51.868 11.3 320 6.5 103490 51
2012-03-09 11:17 51°22.45 2°51.76 9.1 319 6.5 103490 51
2012-03-09 11:18 51°22.394 2°51.648 9.4 21 6.5 103490 50
2012-03-09 11:19 51°22.353 2°51.523 8.5 25 6.5 103480 51
2012-03-09 11:20 51°22.313 2°51.397 9.8 24 6.5 103480 51
2012-03-09 11:21 51°22.274 2°51.272 10.3 22 6.5 103470 51
2012-03-09 11:22 51°22.249 2°51.138 9.3 19 6.5 103470 50
2012-03-09 11:23 51°22.226 2°51.006 10.3 24 6.5 103470 50
2012-03-09 11:24 51°22.191 2°50.881 11.6 317 6.5 103470 51
2012-03-09 11:25 51°22.136 2°50.778 8.1 322 6.6 103490 51
2012-03-09 11:26 51°22.069 2°50.694 9 322 6.6 103480 51
2012-03-09 11:27 51°22.005 2°50.606 8.7 321 6.6 103480 51
2012-03-09 11:28 51°21.944 2°50.514 11.8 317 6.6 103480 51
2012-03-09 11:29 51°21.886 2°50.417 10.6 319 6.6 103480 50
2012-03-09 11:30 51°21.832 2°50.318 9.8 317 6.6 103470 50
2012-03-09 11:31 51°21.774 2°50.223 10.5 320 6.6 103480 50
2012-03-09 11:32 51°21.71 2°50.136 8.2 321 6.6 103470 50
2012-03-09 11:33 51°21.647 2°50.048 8.5 319 6.6 103470 51
2012-03-09 11:34 51°21.591 2°49.951 8.7 319 6.6 103470 51
2012-03-09 11:35 51°21.537 2°49.852 9.5 319 6.6 103470 50
2012-03-09 11:36 51°21.479 2°49.762 8.3 320 6.6 103470 50
2012-03-09 11:37 51°21.417 2°49.68 9.9 324 6.6 103480 51
2012-03-09 11:38 51°21.357 2°49.597 7.7 318 6.6 103480 50
2012-03-09 11:39 51°21.306 2°49.506 10 319 6.6 103480 50
2012-03-09 11:40 51°21.254 2°49.42 9.6 320 6.7 103470 51
2012-03-09 11:41 51°21.196 2°49.339 7.4 322 6.7 103480 50
2012-03-09 11:42 51°21.146 2°49.253 8.5 320 6.7 103470 50
2012-03-09 11:43 51°21.097 2°49.163 10.2 320 6.8 103470 51
2012-03-09 11:44 51°21.043 2°49.08 8.5 321 6.8 103470 50
2012-03-09 11:45 51°20.99 2°49 9.1 321 6.8 103470 51
2012-03-09 11:46 51°20.942 2°48.911 10.3 318 6.8 103460 51
2012-03-09 11:47 51°20.894 2°48.806 11.4 319 6.8 103460 51
2012-03-09 11:48 51°20.842 2°48.701 8.3 322 6.8 103460 51
2012-03-09 11:49 51°20.784 2°48.603 11.5 322 6.9 103470 50
2012-03-09 11:50 51°20.726 2°48.504 10 320 6.8 103460 51
2012-03-09 11:51 51°20.675 2°48.396 9 320 6.9 103470 50
2012-03-09 11:52 51°20.622 2°48.29 9.9 320 6.9 103470 50
2012-03-09 11:53 51°20.567 2°48.189 8.2 320 6.9 103470 51
2012-03-09 11:54 51°20.511 2°48.092 8.5 322 6.9 103470 51
2012-03-09 11:55 51°20.459 2°47.991 9.6 319 6.9 103470 50
2012-03-09 11:56 51°20.412 2°47.88 8.9 320 6.8 103470 50
2012-03-09 11:57 51°20.362 2°47.776 9 320 6.8 103470 51
2012-03-09 11:58 51°20.305 2°47.682 4.1 320 6.8 103470 50
2012-03-09 11:59 51°20.252 2°47.585 8 322 6.8 103470 50
2012-03-09 12:00 51°20.182 2°47.524 8.4 331 6.8 103470 50
2012-03-09 12:01 51°20.097 2°47.517 7.3 335 6.8 103470 49
2012-03-09 12:02 51°20.007 2°47.553 8 341 6.7 103470 51
2012-03-09 12:03 51°19.922 2°47.629 9.1 345 6.7 103470 51
2012-03-09 12:04 51°19.844 2°47.749 8.4 352 6.7 103480 50
2012-03-09 12:05 51°19.78 2°47.879 7.4 352 6.7 103460 51
2012-03-09 12:06 51°19.72 2°47.998 7.6 350 6.7 103460 51
2012-03-09 12:07 51°19.659 2°48.106 7.4 349 6.6 103460 51
2012-03-09 12:08 51°19.596 2°48.211 7.9 352 6.6 103460 49
2012-03-09 12:09 51°19.535 2°48.325 7.4 353 6.6 103460 51
2012-03-09 12:10 51°19.476 2°48.447 7.2 353 6.7 103460 50
2012-03-09 12:11 51°19.415 2°48.566 9.1 352 6.6 103450 51
2012-03-09 12:12 51°19.355 2°48.674 8.5 351 6.7 103450 51
2012-03-09 12:13 51°19.297 2°48.777 7.5 352 6.7 103450 52
2012-03-09 12:14 51°19.241 2°48.886 8.8 354 6.7 103450 51
2012-03-09 12:15 51°19.188 2°49.005 7.2 354 6.7 103450 51
2012-03-09 12:16 51°19.137 2°49.131 7.4 354 6.7 103450 49
2012-03-09 12:17 51°19.085 2°49.256 8.1 352 6.8 103450 50
2012-03-09 12:18 51°19.029 2°49.375 8.1 353 6.8 103450 52
2012-03-09 12:19 51°18.974 2°49.498 8.3 354 6.8 103450 52
2012-03-09 12:20 51°18.92 2°49.628 7.4 353 6.8 103450 52
2012-03-09 12:21 51°18.866 2°49.759 7.4 355 6.8 103450 51
2012-03-09 12:22 51°18.81 2°49.885 7.6 351 6.8 103460 51
2012-03-09 12:23 51°18.752 2°50.006 7.6 352 6.8 103460 51
2012-03-09 12:24 51°18.696 2°50.127 7.8 353 6.9 103460 50
2012-03-09 12:25 51°18.642 2°50.254 8.1 354 6.9 103460 50
2012-03-09 12:26 51°18.596 2°50.387 8.2 357 6.9 103460 51
2012-03-09 12:27 51°18.557 2°50.511 7.4 358 7 103460 51
2012-03-09 12:28 51°18.52 2°50.627 7.1 355 7 103460 51
2012-03-09 12:29 51°18.484 2°50.736 7.9 355 7 103460 50
2012-03-09 12:30 51°18.446 2°50.852 7.2 357 7 103460 51
2012-03-09 12:31 51°18.407 2°50.98 6.8 356 6.9 103460 52
2012-03-09 12:32 51°18.365 2°51.096 8.3 355 6.9 103460 50
2012-03-09 12:33 51°18.318 2°51.198 8 355 7 103460 50
2012-03-09 12:34 51°18.272 2°51.308 7.7 356 7 103460 50
2012-03-09 12:35 51°18.228 2°51.423 7.7 352 7 103470 52
2012-03-09 12:36 51°18.176 2°51.508 7.2 346 7 103460 51
2012-03-09 12:37 51°18.122 2°51.553 8.2 339 7.1 103470 50
2012-03-09 12:38 51°18.071 2°51.561 7.7 332 7.1 103470 52
2012-03-09 12:39 51°18.027 2°51.534 9 324 7.2 103470 52
2012-03-09 12:40 51°17.995 2°51.481 7.6 320 7.2 103460 50
2012-03-09 12:41 51°17.971 2°51.378 10.1 316 7.2 103450 51
2012-03-09 12:42 51°17.95 2°51.253 10 25 7.2 103450 51
2012-03-09 12:43 51°17.93 2°51.125 7.8 22 7.3 103450 50
2012-03-09 12:44 51°17.914 2°50.994 8.4 26 7.3 103450 50
2012-03-09 12:45 51°17.905 2°50.86 8 19 7.3 103440 50
2012-03-09 12:46 51°17.893 2°50.725 9.4 24 7.4 103440 51
2012-03-09 12:47 51°17.88 2°50.591 9.9 26 7.4 103440 51
2012-03-09 12:48 51°17.863 2°50.457 8.2 20 7.4 103440 51
2012-03-09 12:49 51°17.861 2°50.318 10.6 28 7.4 103430 50
2012-03-09 12:50 51°17.88 2°50.173 9.3 27 7.3 103430 51
2012-03-09 12:51 51°17.895 2°50.031 8.4 21 7.3 103440 51
2012-03-09 12:52 51°17.911 2°49.888 8 24 7.3 103430 51
2012-03-09 12:53 51°17.931 2°49.743 8.7 23 7.3 103430 51
2012-03-09 12:54 51°17.969 2°49.601 7.2 26 7.2 103430 50
2012-03-09 12:55 51°18.041 2°49.495 7.5 252 7.2 103430 51
2012-03-09 12:56 51°18.121 2°49.416 7.5 254 7.2 103440 50
2012-03-09 12:57 51°18.193 2°49.333 7.5 251 7.2 103430 51
2012-03-09 12:58 51°18.265 2°49.249 6.4 250 7.2 103440 51
2012-03-09 12:59 51°18.336 2°49.167 7 251 7.2 103430 50
2012-03-09 13:00 51°18.415 2°49.097 7.1 256 7.2 103430 51
2012-03-09 13:01 51°18.502 2°49.04 7.1 259 7.1 103440 51
2012-03-09 13:02 51°18.595 2°48.998 5.6 264 7.2 103440 50
2012-03-09 13:03 51°18.693 2°48.967 5.5 260 7.2 103440 51
2012-03-09 13:04 51°18.79 2°48.936 6.8 259 7.1 103440 50
2012-03-09 13:05 51°18.882 2°48.898 6.7 254 7.1 103440 50
2012-03-09 13:06 51°18.974 2°48.858 6.6 256 7.1 103440 51
2012-03-09 13:07 51°19.07 2°48.822 5.8 259 7.1 103450 50
2012-03-09 13:08 51°19.17 2°48.793 5.9 259 7.1 103440 50
2012-03-09 13:09 51°19.267 2°48.756 6.7 259 7.1 103440 51
2012-03-09 13:10 51°19.356 2°48.706 7.3 259 7.1 103430 50
2012-03-09 13:11 51°19.451 2°48.663 6.1 261 7.1 103430 50
2012-03-09 13:12 51°19.556 2°48.637 6.2 259 7.1 103430 51
2012-03-09 13:13 51°19.659 2°48.6 8.1 255 7.1 103430 50
2012-03-09 13:14 51°19.76 2°48.557 7.9 258 7.1 103430 52
2012-03-09 13:15 51°19.868 2°48.533 4.4 265 7.1 103420 51
2012-03-09 13:16 51°19.977 2°48.54 3.8 268 7.1 103430 50
2012-03-09 13:17 51°20.079 2°48.554 3.5 267 7.1 103430 52
2012-03-09 13:18 51°20.19 2°48.588 4.6 26 7.1 103430 50
2012-03-09 13:19 51°20.305 2°48.668 3.2 21 7 103430 50
2012-03-09 13:20 51°20.406 2°48.801 4.4 44 7.2 103430 51
2012-03-09 13:21 51°20.485 2°48.974 4.1 33 7.1 103430 50
2012-03-09 13:22 51°20.537 2°49.169 5.9 22 7.1 103430 52
2012-03-09 13:23 51°20.559 2°49.369 6.8 13 7 103420 50
2012-03-09 13:24 51°20.549 2°49.552 7.6 -999 6.9 103410 51
2012-03-09 13:25 51°20.507 2°49.683 7.6 349 6.9 103410 51
2012-03-09 13:26 51°20.452 2°49.76 8.5 344 6.9 103410 51
2012-03-09 13:27 51°20.379 2°49.833 9.4 340 6.9 103420 52
2012-03-09 13:28 51°20.293 2°49.894 9 341 6.9 103410 52
2012-03-09 13:29 51°20.205 2°49.951 10.3 347 6.9 103410 51
2012-03-09 13:30 51°20.115 2°50.047 8.9 350 6.9 103410 52
2012-03-09 13:31 51°20.006 2°50.19 11.8 346 6.9 103410 52
2012-03-09 13:32 51°19.839 2°50.351 10.4 344 6.8 103410 52
2012-03-09 13:33 51°19.662 2°50.499 11.8 345 6.8 103420 52
2012-03-09 13:34 51°19.493 2°50.682 12.1 347 6.8 103420 51
2012-03-09 13:35 51°19.32 2°50.848 13.8 344 6.8 103410 52
2012-03-09 13:36 51°19.141 2°50.988 5.9 345 6.9 103410 52
2012-03-09 13:37 51°18.964 2°51.132 10.6 345 7 103410 52
2012-03-09 13:38 51°18.794 2°51.299 13.2 347 7 103410 51
2012-03-09 13:39 51°18.62 2°51.447 13 344 7.1 103410 51
2012-03-09 13:40 51°18.445 2°51.575 10.9 346 7.2 103410 50
2012-03-09 13:41 51°18.271 2°51.722 6.3 346 7.2 103410 51
2012-03-09 13:42 51°18.093 2°51.859 15.1 345 7.3 103410 51
2012-03-09 13:43 51°17.91 2°51.953 10.6 342 7.3 103420 51
2012-03-09 13:44 51°17.735 2°52.083 12.1 344 7.3 103410 51
2012-03-09 13:45 51°17.556 2°52.192 12.4 341 7.3 103410 51
2012-03-09 13:46 51°17.376 2°52.295 11.3 345 7.4 103410 51
2012-03-09 13:47 51°17.201 2°52.423 14.3 346 7.4 103410 51
2012-03-09 13:48 51°17.025 2°52.563 11.4 346 7.4 103420 51
2012-03-09 13:49 51°16.846 2°52.69 9.2 347 7.5 103420 51
2012-03-09 13:50 51°16.671 2°52.839 8.9 345 7.5 103410 51
2012-03-09 13:51 51°16.491 2°52.968 16.4 344 7.5 103420 50
2012-03-09 13:52 51°16.315 2°53.113 10.3 348 7.6 103430 51
2012-03-09 13:53 51°16.139 2°53.254 12.9 346 7.6 103430 51
2012-03-09 13:54 51°15.962 2°53.387 10.9 347 7.6 103430 50
2012-03-09 13:55 51°15.785 2°53.531 12.4 346 7.7 103430 50
2012-03-09 13:56 51°15.618 2°53.713 13 348 7.7 103430 50
2012-03-09 13:57 51°15.459 2°53.912 12.2 352 7.8 103430 50
2012-03-09 13:58 51°15.302 2°54.112 12.5 351 7.8 103430 49
2012-03-09 13:59 51°15.143 2°54.309 12 351 7.8 103420 50
2012-03-09 14:00 51°14.98 2°54.498 10.8 352 7.9 103420 49
2012-03-09 14:01 51°14.826 2°54.71 14 351 8 103420 50
2012-03-09 14:02 51°14.669 2°54.917 11.6 347 8.1 103430 49
2012-03-09 14:03 51°14.502 2°55.083 9 356 8.3 103430 50
2012-03-09 14:04 51°14.352 2°55.23 9.2 358 8.5 103440 49
2012-03-09 14:05 51°14.245 2°55.326 5.4 351 8.7 103440 50
2012-03-09 14:06 51°14.151 2°55.4 7.6 346 8.9 103460 49
2012-03-09 14:07 51°14.038 2°55.483 6.6 344 9 103450 49
2012-03-09 14:08 51°13.932 2°55.557 8.1 358 9.1 103450 49
2012-03-09 14:09 51°13.848 2°55.624 7 350 9.1 103440 49
2012-03-09 14:10 51°13.764 2°55.707 4.6 347 9.1 103440 48
2012-03-09 14:11 51°13.703 2°55.812 5.3 4 9.1 103450 47
2012-03-09 14:12 51°13.661 2°55.912 4 4 9.1 103460 49
2012-03-09 14:13 51°13.642 2°55.992 3.8 360 9.1 103460 48
2012-03-09 14:14 51°13.639 2°56.012 4 3 9.1 103460 48
2012-03-09 14:15 51°13.637 2°56.019 3.8 11 9.1 103450 49
2012-03-09 14:16 51°13.638 2°56.017 4 19 9.1 103450 49